This is the latest recevied weather packets stored in our database for station/object JA7ZQY-10. If no packets are shown the sender has not sent any weather packets the latest 10 day(s).
| Time | Temp. | Humidity | Pressure | Rain* | Wind** | Luminosity | Snow |
|---|---|---|---|---|---|---|---|
| 1778232291 | 17.78° C | 68% | 1003 hPa | 0 mm | - | - | - |
| 1778231690 | 17.78° C | 67% | 1002.8 hPa | 0 mm | - | - | - |
| 1778231090 | 17.78° C | 66% | 1002.7 hPa | 0 mm | - | - | - |
| 1778230490 | 18.33° C | 65% | 1002.6 hPa | 0 mm | - | - | - |
| 1778229890 | 18.33° C | 64% | 1002.9 hPa | 0 mm | - | - | - |
| 1778229290 | 18.33° C | 64% | 1002.9 hPa | 0 mm | - | - | - |
| 1778228690 | 18.33° C | 66% | 1003 hPa | 0 mm | - | - | - |
| 1778228090 | 15.56° C | 77% | 1003.1 hPa | 0 mm | - | - | - |
| 1778227490 | 15° C | 77% | 1003.1 hPa | 0 mm | - | - | - |
| 1778226889 | 15° C | 77% | 1003.2 hPa | 0 mm | - | - | - |
| 1778226290 | 15° C | 77% | 1003.3 hPa | 0 mm | - | - | - |
| 1778225691 | 15° C | 76% | 1003.4 hPa | 0 mm | - | - | - |
| 1778225090 | 15.56° C | 74% | 1003.9 hPa | 0 mm | - | - | - |
| 1778224489 | 15.56° C | 74% | 1003.6 hPa | 0 mm | - | - | - |
| 1778223889 | 16.11° C | 74% | 1003.5 hPa | 0 mm | - | - | - |
| 1778223291 | 15.56° C | 74% | 1003.7 hPa | 0 mm | - | - | - |
| 1778222690 | 15.56° C | 74% | 1004 hPa | 0 mm | - | - | - |
| 1778222091 | 16.11° C | 73% | 1003.9 hPa | 0 mm | - | - | - |
| 1778221489 | 16.11° C | 73% | 1003.7 hPa | 0 mm | - | - | - |
| 1778220890 | 16.11° C | 72% | 1003.6 hPa | 0 mm | - | - | - |
| 1778220290 | 16.67° C | 71% | 1003.7 hPa | 0 mm | - | - | - |
| 1778219691 | 17.22° C | 70% | 1003.8 hPa | 0 mm | - | - | - |
| 1778219091 | 17.78° C | 64% | 1004 hPa | 0 mm | - | - | - |
| 1778218491 | 18.33° C | 66% | 1004.3 hPa | 0 mm | - | - | - |
| 1778217890 | 17.78° C | 66% | 1004.3 hPa | 0 mm | - | - | - |
* Rain latest hour (hover to see other rain measurements)
** Current wind speed in m/s (hover to see current wind gust speed)